sensor_id;sensor_type;location;lat;lon;timestamp;pressure;altitude;pressure_sealevel;temperature;humidity
49529;BME280;35423;37.320;-121.762;2023-07-13T00:01:44;99829.40;;;44.10;9.25
49529;BME280;35423;37.320;-121.762;2023-07-13T00:04:10;99832.25;;;44.31;9.34
49529;BME280;35423;37.320;-121.762;2023-07-13T00:06:40;99830.38;;;43.94;9.35
49529;BME280;35423;37.320;-121.762;2023-07-13T00:09:06;99833.06;;;43.83;9.37
49529;BME280;35423;37.320;-121.762;2023-07-13T00:11:31;99828.28;;;43.74;9.31
49529;BME280;35423;37.320;-121.762;2023-07-13T00:14:01;99831.29;;;44.24;9.36
49529;BME280;35423;37.320;-121.762;2023-07-13T00:16:37;99830.74;;;43.65;9.37
49529;BME280;35423;37.320;-121.762;2023-07-13T00:19:02;99831.37;;;43.49;9.35
49529;BME280;35423;37.320;-121.762;2023-07-13T00:21:36;99829.50;;;43.93;9.40
49529;BME280;35423;37.320;-121.762;2023-07-13T00:24:05;99828.65;;;43.98;9.22
49529;BME280;35423;37.320;-121.762;2023-07-13T00:26:30;99833.65;;;43.67;9.02
49529;BME280;35423;37.320;-121.762;2023-07-13T00:28:57;99827.23;;;43.86;8.81
49529;BME280;35423;37.320;-121.762;2023-07-13T00:31:26;99831.29;;;43.82;8.71
49529;BME280;35423;37.320;-121.762;2023-07-13T00:33:54;99829.09;;;43.84;8.60
49529;BME280;35423;37.320;-121.762;2023-07-13T00:36:20;99834.43;;;43.52;8.72
49529;BME280;35423;37.320;-121.762;2023-07-13T00:38:47;99833.56;;;43.70;8.90
49529;BME280;35423;37.320;-121.762;2023-07-13T00:41:14;99832.16;;;43.60;9.01
49529;BME280;35423;37.320;-121.762;2023-07-13T00:43:39;99833.44;;;43.81;8.97
49529;BME280;35423;37.320;-121.762;2023-07-13T00:46:12;99836.88;;;43.43;8.91
49529;BME280;35423;37.320;-121.762;2023-07-13T00:48:36;99834.64;;;43.18;8.88
49529;BME280;35423;37.320;-121.762;2023-07-13T00:50:59;99831.72;;;42.75;8.92
49529;BME280;35423;37.320;-121.762;2023-07-13T00:53:24;99831.81;;;43.10;8.95
49529;BME280;35423;37.320;-121.762;2023-07-13T00:55:50;99831.36;;;43.04;9.01
49529;BME280;35423;37.320;-121.762;2023-07-13T00:58:17;99830.61;;;42.95;9.06
49529;BME280;35423;37.320;-121.762;2023-07-13T01:00:48;99830.46;;;42.76;9.16
49529;BME280;35423;37.320;-121.762;2023-07-13T01:03:16;99829.30;;;42.87;9.12
49529;BME280;35423;37.320;-121.762;2023-07-13T01:05:48;99835.84;;;42.97;9.20
49529;BME280;35423;37.320;-121.762;2023-07-13T01:08:16;99832.17;;;42.42;9.24
49529;BME280;35423;37.320;-121.762;2023-07-13T01:10:42;99830.70;;;42.35;9.22
49529;BME280;35423;37.320;-121.762;2023-07-13T01:13:10;99832.80;;;42.56;9.16
49529;BME280;35423;37.320;-121.762;2023-07-13T01:15:42;99835.68;;;42.49;9.08
49529;BME280;35423;37.320;-121.762;2023-07-13T01:18:06;99835.72;;;42.04;9.18
49529;BME280;35423;37.320;-121.762;2023-07-13T01:20:33;99835.34;;;42.18;9.36
49529;BME280;35423;37.320;-121.762;2023-07-13T01:23:04;99836.07;;;42.00;9.45
49529;BME280;35423;37.320;-121.762;2023-07-13T01:25:29;99834.68;;;42.10;9.52
49529;BME280;35423;37.320;-121.762;2023-07-13T01:27:58;99839.79;;;42.02;9.48
49529;BME280;35423;37.320;-121.762;2023-07-13T01:30:24;99839.51;;;41.92;9.44
49529;BME280;35423;37.320;-121.762;2023-07-13T01:32:53;99838.23;;;41.86;9.36
49529;BME280;35423;37.320;-121.762;2023-07-13T01:35:21;99835.84;;;41.77;9.17
49529;BME280;35423;37.320;-121.762;2023-07-13T01:37:49;99839.13;;;41.80;9.15
49529;BME280;35423;37.320;-121.762;2023-07-13T01:40:20;99838.67;;;41.46;9.13
49529;BME280;35423;37.320;-121.762;2023-07-13T01:42:45;99841.34;;;41.24;9.15
49529;BME280;35423;37.320;-121.762;2023-07-13T01:45:15;99841.28;;;41.11;9.11
49529;BME280;35423;37.320;-121.762;2023-07-13T01:47:42;99838.24;;;41.15;9.28
49529;BME280;35423;37.320;-121.762;2023-07-13T01:50:12;99846.08;;;40.77;9.40
49529;BME280;35423;37.320;-121.762;2023-07-13T01:52:39;99846.69;;;40.89;9.50
49529;BME280;35423;37.320;-121.762;2023-07-13T01:55:08;99845.23;;;40.53;9.45
49529;BME280;35423;37.320;-121.762;2023-07-13T01:57:32;99845.40;;;40.97;9.52
49529;BME280;35423;37.320;-121.762;2023-07-13T02:00:00;99841.15;;;40.66;9.49
49529;BME280;35423;37.320;-121.762;2023-07-13T02:02:27;99841.09;;;40.59;9.41
49529;BME280;35423;37.320;-121.762;2023-07-13T02:04:52;99841.91;;;40.72;9.39
49529;BME280;35423;37.320;-121.762;2023-07-13T02:07:18;99840.46;;;40.64;9.41
49529;BME280;35423;37.320;-121.762;2023-07-13T02:09:45;99841.68;;;40.48;9.49
49529;BME280;35423;37.320;-121.762;2023-07-13T02:12:11;99845.97;;;40.39;9.53
49529;BME280;35423;37.320;-121.762;2023-07-13T02:14:37;99844.53;;;40.01;9.57
49529;BME280;35423;37.320;-121.762;2023-07-13T02:17:04;99849.09;;;40.14;9.69
49529;BME280;35423;37.320;-121.762;2023-07-13T02:19:29;99852.29;;;40.23;9.78
49529;BME280;35423;37.320;-121.762;2023-07-13T02:21:57;99856.18;;;40.08;10.02
49529;BME280;35423;37.320;-121.762;2023-07-13T02:24:23;99858.31;;;39.94;10.24
49529;BME280;35423;37.320;-121.762;2023-07-13T02:26:49;99858.93;;;39.71;10.47
49529;BME280;35423;37.320;-121.762;2023-07-13T02:29:15;99857.09;;;39.59;10.72
49529;BME280;35423;37.320;-121.762;2023-07-13T02:31:41;99858.69;;;39.70;10.90
49529;BME280;35423;37.320;-121.762;2023-07-13T02:34:06;99858.11;;;39.22;11.02
49529;BME280;35423;37.320;-121.762;2023-07-13T02:36:33;99859.20;;;39.39;11.15
49529;BME280;35423;37.320;-121.762;2023-07-13T02:39:00;99863.04;;;39.28;11.24
49529;BME280;35423;37.320;-121.762;2023-07-13T02:41:24;99862.33;;;39.32;11.41
49529;BME280;35423;37.320;-121.762;2023-07-13T02:43:53;99865.03;;;39.10;11.64
49529;BME280;35423;37.320;-121.762;2023-07-13T02:46:19;99865.61;;;38.75;11.80
49529;BME280;35423;37.320;-121.762;2023-07-13T02:48:47;99868.18;;;38.61;11.96
49529;BME280;35423;37.320;-121.762;2023-07-13T02:51:14;99872.36;;;38.73;12.05
49529;BME280;35423;37.320;-121.762;2023-07-13T02:53:39;99872.96;;;38.30;12.14
49529;BME280;35423;37.320;-121.762;2023-07-13T02:56:06;99878.71;;;38.56;12.25
49529;BME280;35423;37.320;-121.762;2023-07-13T02:58:35;99880.11;;;38.37;12.42
49529;BME280;35423;37.320;-121.762;2023-07-13T03:01:10;99883.76;;;38.14;12.58
49529;BME280;35423;37.320;-121.762;2023-07-13T03:03:33;99888.15;;;37.95;12.76
49529;BME280;35423;37.320;-121.762;2023-07-13T03:06:01;99890.08;;;37.85;12.82
49529;BME280;35423;37.320;-121.762;2023-07-13T03:08:26;99887.15;;;37.22;12.91
49529;BME280;35423;37.320;-121.762;2023-07-13T03:10:59;99888.27;;;37.78;13.00
49529;BME280;35423;37.320;-121.762;2023-07-13T03:13:17;99889.08;;;37.31;13.14
49529;BME280;35423;37.320;-121.762;2023-07-13T03:15:43;99890.28;;;37.39;13.26
49529;BME280;35423;37.320;-121.762;2023-07-13T03:18:11;99894.09;;;37.24;13.39
49529;BME280;35423;37.320;-121.762;2023-07-13T03:20:38;99893.89;;;36.83;13.48
49529;BME280;35423;37.320;-121.762;2023-07-13T03:23:09;99896.71;;;36.99;13.58
49529;BME280;35423;37.320;-121.762;2023-07-13T03:25:34;99895.37;;;37.02;13.68
49529;BME280;35423;37.320;-121.762;2023-07-13T03:28:03;99895.71;;;36.42;13.75
49529;BME280;35423;37.320;-121.762;2023-07-13T03:30:29;99896.60;;;36.78;13.84
49529;BME280;35423;37.320;-121.762;2023-07-13T03:32:57;99897.40;;;36.19;13.89
49529;BME280;35423;37.320;-121.762;2023-07-13T03:35:25;99898.94;;;36.32;13.96
49529;BME280;35423;37.320;-121.762;2023-07-13T03:37:53;99899.84;;;36.32;14.10
49529;BME280;35423;37.320;-121.762;2023-07-13T03:40:19;99902.41;;;36.19;14.16
49529;BME280;35423;37.320;-121.762;2023-07-13T03:42:47;99902.35;;;36.29;14.27
49529;BME280;35423;37.320;-121.762;2023-07-13T03:45:11;99905.52;;;36.18;14.35
49529;BME280;35423;37.320;-121.762;2023-07-13T03:47:37;99906.89;;;35.90;14.37
49529;BME280;35423;37.320;-121.762;2023-07-13T03:50:04;99909.19;;;35.78;14.43
49529;BME280;35423;37.320;-121.762;2023-07-13T03:52:30;99908.33;;;36.14;14.48
49529;BME280;35423;37.320;-121.762;2023-07-13T03:55:02;99908.42;;;35.48;14.53
49529;BME280;35423;37.320;-121.762;2023-07-13T03:57:27;99910.35;;;35.34;14.57
49529;BME280;35423;37.320;-121.762;2023-07-13T03:59:54;99916.82;;;35.65;14.66
49529;BME280;35423;37.320;-121.762;2023-07-13T04:04:48;99920.01;;;35.07;14.66
49529;BME280;35423;37.320;-121.762;2023-07-13T04:07:13;99922.39;;;34.91;14.74
49529;BME280;35423;37.320;-121.762;2023-07-13T04:09:42;99919.75;;;34.95;14.84
49529;BME280;35423;37.320;-121.762;2023-07-13T04:12:06;99921.45;;;35.32;14.89
49529;BME280;35423;37.320;-121.762;2023-07-13T04:14:31;99925.74;;;34.93;14.97
49529;BME280;35423;37.320;-121.762;2023-07-13T04:16:59;99930.06;;;35.03;15.09
49529;BME280;35423;37.320;-121.762;2023-07-13T04:19:28;99934.08;;;34.68;15.02
49529;BME280;35423;37.320;-121.762;2023-07-13T04:21:54;99934.86;;;34.55;15.07
49529;BME280;35423;37.320;-121.762;2023-07-13T04:24:22;99934.84;;;34.60;15.17
49529;BME280;35423;37.320;-121.762;2023-07-13T04:26:47;99934.35;;;34.33;15.18
49529;BME280;35423;37.320;-121.762;2023-07-13T04:29:13;99938.83;;;34.20;15.21
49529;BME280;35423;37.320;-121.762;2023-07-13T04:31:37;99943.33;;;34.29;15.29
49529;BME280;35423;37.320;-121.762;2023-07-13T04:34:03;99946.92;;;34.12;15.37
49529;BME280;35423;37.320;-121.762;2023-07-13T04:36:33;99951.04;;;34.05;15.45
49529;BME280;35423;37.320;-121.762;2023-07-13T04:38:58;99953.79;;;33.97;15.46
49529;BME280;35423;37.320;-121.762;2023-07-13T04:41:23;99954.56;;;34.09;15.58
49529;BME280;35423;37.320;-121.762;2023-07-13T04:43:50;99955.49;;;33.76;15.61
49529;BME280;35423;37.320;-121.762;2023-07-13T04:46:16;99958.80;;;33.88;15.70
49529;BME280;35423;37.320;-121.762;2023-07-13T04:48:41;99963.90;;;34.02;15.74
49529;BME280;35423;37.320;-121.762;2023-07-13T04:51:09;99965.89;;;33.72;15.78
49529;BME280;35423;37.320;-121.762;2023-07-13T04:53:35;99964.16;;;33.77;15.88
49529;BME280;35423;37.320;-121.762;2023-07-13T04:56:03;99967.09;;;33.43;15.94
49529;BME280;35423;37.320;-121.762;2023-07-13T04:58:31;99973.89;;;33.28;16.03
49529;BME280;35423;37.320;-121.762;2023-07-13T05:01:01;99975.39;;;33.41;16.12
49529;BME280;35423;37.320;-121.762;2023-07-13T05:03:24;99976.40;;;33.09;16.19
49529;BME280;35423;37.320;-121.762;2023-07-13T05:05:57;99979.48;;;33.43;16.34
49529;BME280;35423;37.320;-121.762;2023-07-13T05:08:18;99982.11;;;33.07;16.53
49529;BME280;35423;37.320;-121.762;2023-07-13T05:10:47;99983.21;;;32.75;16.64
49529;BME280;35423;37.320;-121.762;2023-07-13T05:13:12;99984.08;;;32.60;16.84
49529;BME280;35423;37.320;-121.762;2023-07-13T05:15:38;99986.57;;;32.94;16.89
49529;BME280;35423;37.320;-121.762;2023-07-13T05:18:04;99991.54;;;32.81;17.00
49529;BME280;35423;37.320;-121.762;2023-07-13T05:20:34;99993.22;;;32.49;17.09
49529;BME280;35423;37.320;-121.762;2023-07-13T05:22:59;99997.06;;;32.60;17.20
49529;BME280;35423;37.320;-121.762;2023-07-13T05:25:29;99996.85;;;32.48;17.27
49529;BME280;35423;37.320;-121.762;2023-07-13T05:27:56;99996.70;;;32.39;17.36
49529;BME280;35423;37.320;-121.762;2023-07-13T05:30:22;99998.33;;;32.28;17.44
49529;BME280;35423;37.320;-121.762;2023-07-13T05:32:47;99998.13;;;32.19;17.52
49529;BME280;35423;37.320;-121.762;2023-07-13T05:35:16;99995.46;;;32.05;17.62
49529;BME280;35423;37.320;-121.762;2023-07-13T05:37:42;99994.28;;;32.22;17.72
49529;BME280;35423;37.320;-121.762;2023-07-13T05:40:09;99995.70;;;32.15;17.78
49529;BME280;35423;37.320;-121.762;2023-07-13T05:42:33;99997.37;;;32.32;17.84
49529;BME280;35423;37.320;-121.762;2023-07-13T05:44:58;99996.75;;;31.74;17.87
49529;BME280;35423;37.320;-121.762;2023-07-13T05:47:27;99995.59;;;31.67;17.84
49529;BME280;35423;37.320;-121.762;2023-07-13T05:49:52;99997.21;;;31.85;17.83
49529;BME280;35423;37.320;-121.762;2023-07-13T05:52:18;99998.05;;;31.46;17.88
49529;BME280;35423;37.320;-121.762;2023-07-13T05:54:44;99994.42;;;31.87;17.88
49529;BME280;35423;37.320;-121.762;2023-07-13T05:57:11;99994.11;;;31.77;17.88
49529;BME280;35423;37.320;-121.762;2023-07-13T05:59:36;99992.59;;;31.51;17.91
49529;BME280;35423;37.320;-121.762;2023-07-13T06:02:02;99991.57;;;31.67;17.95
49529;BME280;35423;37.320;-121.762;2023-07-13T06:04:28;99991.24;;;31.33;18.07
49529;BME280;35423;37.320;-121.762;2023-07-13T06:06:52;99990.08;;;31.52;18.12
49529;BME280;35423;37.320;-121.762;2023-07-13T06:09:21;99987.14;;;31.22;18.19
49529;BME280;35423;37.320;-121.762;2023-07-13T06:11:53;99985.72;;;31.56;18.31
49529;BME280;35423;37.320;-121.762;2023-07-13T06:14:18;99983.07;;;31.25;18.38
49529;BME280;35423;37.320;-121.762;2023-07-13T06:16:50;99984.56;;;31.20;18.38
49529;BME280;35423;37.320;-121.762;2023-07-13T06:19:15;99987.68;;;31.13;18.38
49529;BME280;35423;37.320;-121.762;2023-07-13T06:21:42;99988.92;;;31.55;18.43
49529;BME280;35423;37.320;-121.762;2023-07-13T06:24:07;99987.41;;;31.17;18.56
49529;BME280;35423;37.320;-121.762;2023-07-13T06:26:36;99984.48;;;30.84;18.58
49529;BME280;35423;37.320;-121.762;2023-07-13T06:29:02;99986.31;;;30.74;18.69
49529;BME280;35423;37.320;-121.762;2023-07-13T06:31:27;99987.61;;;30.67;18.72
49529;BME280;35423;37.320;-121.762;2023-07-13T06:33:56;99990.73;;;30.59;18.80
49529;BME280;35423;37.320;-121.762;2023-07-13T06:36:24;99989.01;;;30.64;18.93
49529;BME280;35423;37.320;-121.762;2023-07-13T06:38:52;99989.04;;;30.52;18.99
49529;BME280;35423;37.320;-121.762;2023-07-13T06:41:20;99985.79;;;30.42;19.07
49529;BME280;35423;37.320;-121.762;2023-07-13T06:43:46;99985.76;;;30.62;19.13
49529;BME280;35423;37.320;-121.762;2023-07-13T06:46:12;99986.45;;;30.26;19.21
49529;BME280;35423;37.320;-121.762;2023-07-13T06:48:40;99988.67;;;30.47;19.27
49529;BME280;35423;37.320;-121.762;2023-07-13T06:51:05;99989.01;;;30.37;19.39
49529;BME280;35423;37.320;-121.762;2023-07-13T06:53:36;99988.39;;;30.00;19.48
49529;BME280;35423;37.320;-121.762;2023-07-13T06:56:02;99986.60;;;30.20;19.57
49529;BME280;35423;37.320;-121.762;2023-07-13T06:58:29;99984.31;;;30.13;19.65
49529;BME280;35423;37.320;-121.762;2023-07-13T07:00:57;99984.81;;;29.82;19.69
49529;BME280;35423;37.320;-121.762;2023-07-13T07:03:25;99983.26;;;30.46;19.81
49529;BME280;35423;37.320;-121.762;2023-07-13T07:06:01;99980.42;;;29.87;19.88
49529;BME280;35423;37.320;-121.762;2023-07-13T07:08:21;99977.70;;;30.01;19.93
49529;BME280;35423;37.320;-121.762;2023-07-13T07:10:48;99977.55;;;29.93;20.04
49529;BME280;35423;37.320;-121.762;2023-07-13T07:13:14;99978.05;;;29.87;20.10
49529;BME280;35423;37.320;-121.762;2023-07-13T07:15:40;99979.66;;;30.07;20.17
49529;BME280;35423;37.320;-121.762;2023-07-13T07:18:05;99976.98;;;29.75;20.21
49529;BME280;35423;37.320;-121.762;2023-07-13T07:20:32;99975.79;;;29.64;20.25
49529;BME280;35423;37.320;-121.762;2023-07-13T07:23:00;99977.46;;;29.80;20.33
49529;BME280;35423;37.320;-121.762;2023-07-13T07:25:25;99975.64;;;29.69;20.44
49529;BME280;35423;37.320;-121.762;2023-07-13T07:27:50;99979.83;;;29.38;20.47
49529;BME280;35423;37.320;-121.762;2023-07-13T07:30:17;99977.58;;;29.56;20.58
49529;BME280;35423;37.320;-121.762;2023-07-13T07:32:43;99981.29;;;29.00;20.66
49529;BME280;35423;37.320;-121.762;2023-07-13T07:35:11;99983.03;;;28.90;20.73
49529;BME280;35423;37.320;-121.762;2023-07-13T07:37:43;99978.59;;;29.02;20.85
49529;BME280;35423;37.320;-121.762;2023-07-13T07:40:09;99979.88;;;29.24;20.91
49529;BME280;35423;37.320;-121.762;2023-07-13T07:42:35;99982.52;;;28.93;20.96
49529;BME280;35423;37.320;-121.762;2023-07-13T07:45:01;99982.68;;;29.10;21.04
49529;BME280;35423;37.320;-121.762;2023-07-13T07:47:27;99984.75;;;28.99;21.14
49529;BME280;35423;37.320;-121.762;2023-07-13T07:49:57;99983.69;;;28.88;21.22
49529;BME280;35423;37.320;-121.762;2023-07-13T07:52:23;99983.49;;;28.80;21.33
49529;BME280;35423;37.320;-121.762;2023-07-13T07:54:50;99986.85;;;28.74;21.39
49529;BME280;35423;37.320;-121.762;2023-07-13T07:57:19;99987.82;;;28.65;21.46
49529;BME280;35423;37.320;-121.762;2023-07-13T07:59:45;99985.81;;;28.53;21.55
49529;BME280;35423;37.320;-121.762;2023-07-13T08:02:12;99985.21;;;28.46;21.62
49529;BME280;35423;37.320;-121.762;2023-07-13T08:04:38;99980.91;;;28.80;21.69
49529;BME280;35423;37.320;-121.762;2023-07-13T08:07:04;99981.03;;;28.75;21.75
49529;BME280;35423;37.320;-121.762;2023-07-13T08:09:32;99978.42;;;28.68;21.83
49529;BME280;35423;37.320;-121.762;2023-07-13T08:11:57;99980.75;;;28.57;21.90
49529;BME280;35423;37.320;-121.762;2023-07-13T08:14:23;99981.41;;;28.53;22.02
49529;BME280;35423;37.320;-121.762;2023-07-13T08:16:53;99979.91;;;28.45;22.08
49529;BME280;35423;37.320;-121.762;2023-07-13T08:19:27;99976.67;;;28.30;22.21
49529;BME280;35423;37.320;-121.762;2023-07-13T08:21:53;99973.84;;;27.76;22.29
49529;BME280;35423;37.320;-121.762;2023-07-13T08:24:23;99976.56;;;28.11;22.37
49529;BME280;35423;37.320;-121.762;2023-07-13T08:26:47;99976.26;;;28.20;22.31
49529;BME280;35423;37.320;-121.762;2023-07-13T08:29:23;99976.03;;;28.18;22.28
49529;BME280;35423;37.320;-121.762;2023-07-13T08:31:47;99976.60;;;28.02;22.39
49529;BME280;35423;37.320;-121.762;2023-07-13T08:34:21;99973.55;;;27.82;22.55
49529;BME280;35423;37.320;-121.762;2023-07-13T08:36:47;99974.14;;;27.69;22.65
49529;BME280;35423;37.320;-121.762;2023-07-13T08:39:13;99973.13;;;27.54;22.77
49529;BME280;35423;37.320;-121.762;2023-07-13T08:41:38;99971.91;;;27.74;22.79
49529;BME280;35423;37.320;-121.762;2023-07-13T08:44:06;99968.35;;;27.66;22.83
49529;BME280;35423;37.320;-121.762;2023-07-13T08:46:34;99967.17;;;27.57;22.89
49529;BME280;35423;37.320;-121.762;2023-07-13T08:49:04;99967.19;;;27.76;22.93
49529;BME280;35423;37.320;-121.762;2023-07-13T08:51:36;99969.71;;;27.23;22.94
49529;BME280;35423;37.320;-121.762;2023-07-13T08:54:00;99967.25;;;27.11;23.02
49529;BME280;35423;37.320;-121.762;2023-07-13T08:56:28;99969.53;;;27.05;23.06
49529;BME280;35423;37.320;-121.762;2023-07-13T08:58:55;99970.57;;;27.25;23.10
49529;BME280;35423;37.320;-121.762;2023-07-13T09:01:21;99968.75;;;26.98;23.15
49529;BME280;35423;37.320;-121.762;2023-07-13T09:03:50;99966.33;;;27.16;23.30
49529;BME280;35423;37.320;-121.762;2023-07-13T09:06:11;99966.64;;;26.81;23.36
49529;BME280;35423;37.320;-121.762;2023-07-13T09:08:46;99965.75;;;27.04;23.44
49529;BME280;35423;37.320;-121.762;2023-07-13T09:11:06;99965.71;;;27.19;23.50
49529;BME280;35423;37.320;-121.762;2023-07-13T09:13:31;99964.33;;;27.13;23.58
49529;BME280;35423;37.320;-121.762;2023-07-13T09:16:00;99968.56;;;27.12;23.61
49529;BME280;35423;37.320;-121.762;2023-07-13T09:18:29;99969.87;;;27.07;23.62
49529;BME280;35423;37.320;-121.762;2023-07-13T09:20:54;99973.75;;;26.76;23.69
49529;BME280;35423;37.320;-121.762;2023-07-13T09:23:22;99973.96;;;26.89;23.79
49529;BME280;35423;37.320;-121.762;2023-07-13T09:25:44;99973.44;;;26.81;23.95
49529;BME280;35423;37.320;-121.762;2023-07-13T09:28:15;99974.76;;;26.77;23.87
49529;BME280;35423;37.320;-121.762;2023-07-13T09:30:40;99973.62;;;26.64;23.99
49529;BME280;35423;37.320;-121.762;2023-07-13T09:33:07;99974.06;;;26.53;24.05
49529;BME280;35423;37.320;-121.762;2023-07-13T09:35:38;99972.33;;;26.51;24.02
49529;BME280;35423;37.320;-121.762;2023-07-13T09:38:12;99972.54;;;26.39;24.15
49529;BME280;35423;37.320;-121.762;2023-07-13T09:40:44;99972.72;;;26.28;24.19
49529;BME280;35423;37.320;-121.762;2023-07-13T09:42:59;99972.10;;;26.14;24.33
49529;BME280;35423;37.320;-121.762;2023-07-13T09:45:29;99969.84;;;26.13;24.38
49529;BME280;35423;37.320;-121.762;2023-07-13T09:47:59;99965.31;;;26.26;24.54
49529;BME280;35423;37.320;-121.762;2023-07-13T09:50:17;99960.86;;;25.92;24.72
49529;BME280;35423;37.320;-121.762;2023-07-13T09:52:46;99961.54;;;26.40;24.74
49529;BME280;35423;37.320;-121.762;2023-07-13T09:57:47;99960.96;;;26.29;24.79
49529;BME280;35423;37.320;-121.762;2023-07-13T10:00:22;99960.31;;;25.78;24.79
49529;BME280;35423;37.320;-121.762;2023-07-13T10:02:40;99962.78;;;25.93;24.86
49529;BME280;35423;37.320;-121.762;2023-07-13T10:05:13;99963.34;;;26.16;24.89
49529;BME280;35423;37.320;-121.762;2023-07-13T10:07:39;99963.97;;;25.64;24.94
49529;BME280;35423;37.320;-121.762;2023-07-13T10:10:01;99964.31;;;26.06;24.97
49529;BME280;35423;37.320;-121.762;2023-07-13T10:12:25;99964.56;;;25.77;25.02
49529;BME280;35423;37.320;-121.762;2023-07-13T10:14:54;99966.90;;;26.01;25.02
49529;BME280;35423;37.320;-121.762;2023-07-13T10:17:23;99968.19;;;25.48;25.06
49529;BME280;35423;37.320;-121.762;2023-07-13T10:19:49;99966.26;;;25.84;24.96
49529;BME280;35423;37.320;-121.762;2023-07-13T10:22:19;99963.02;;;25.60;24.97
49529;BME280;35423;37.320;-121.762;2023-07-13T10:24:38;99963.00;;;25.77;25.03
49529;BME280;35423;37.320;-121.762;2023-07-13T10:27:13;99962.69;;;25.90;25.19
49529;BME280;35423;37.320;-121.762;2023-07-13T10:29:36;99962.50;;;26.05;25.19
49529;BME280;35423;37.320;-121.762;2023-07-13T10:31:58;99961.05;;;25.69;25.28
49529;BME280;35423;37.320;-121.762;2023-07-13T10:34:23;99958.72;;;25.61;25.33
49529;BME280;35423;37.320;-121.762;2023-07-13T10:36:56;99952.77;;;25.78;25.35
49529;BME280;35423;37.320;-121.762;2023-07-13T10:39:24;99948.60;;;25.51;25.38
49529;BME280;35423;37.320;-121.762;2023-07-13T10:41:53;99946.64;;;25.44;25.47
49529;BME280;35423;37.320;-121.762;2023-07-13T10:44:24;99946.37;;;25.40;25.55
49529;BME280;35423;37.320;-121.762;2023-07-13T10:46:44;99944.96;;;25.33;25.66
49529;BME280;35423;37.320;-121.762;2023-07-13T10:49:11;99944.99;;;25.79;25.72
49529;BME280;35423;37.320;-121.762;2023-07-13T10:51:35;99947.04;;;25.68;25.81
49529;BME280;35423;37.320;-121.762;2023-07-13T10:54:11;99946.37;;;25.16;25.80
49529;BME280;35423;37.320;-121.762;2023-07-13T10:56:30;99948.94;;;25.53;25.90
49529;BME280;35423;37.320;-121.762;2023-07-13T10:59:10;99950.50;;;25.22;25.98
49529;BME280;35423;37.320;-121.762;2023-07-13T11:01:26;99948.26;;;25.16;26.05
49529;BME280;35423;37.320;-121.762;2023-07-13T11:03:59;99949.63;;;25.09;26.11
49529;BME280;35423;37.320;-121.762;2023-07-13T11:06:31;99947.90;;;24.89;26.06
49529;BME280;35423;37.320;-121.762;2023-07-13T11:08:52;99949.78;;;25.33;26.10
49529;BME280;35423;37.320;-121.762;2023-07-13T11:16:13;99952.77;;;25.18;26.31
49529;BME280;35423;37.320;-121.762;2023-07-13T11:18:35;99955.18;;;24.89;26.23
49529;BME280;35423;37.320;-121.762;2023-07-13T11:21:12;99956.95;;;24.83;26.25
49529;BME280;35423;37.320;-121.762;2023-07-13T11:23:32;99955.86;;;25.06;26.15
49529;BME280;35423;37.320;-121.762;2023-07-13T11:26:02;99959.67;;;24.77;26.19
49529;BME280;35423;37.320;-121.762;2023-07-13T11:28:31;99959.01;;;24.71;26.22
49529;BME280;35423;37.320;-121.762;2023-07-13T11:31:11;99961.83;;;24.65;26.28
49529;BME280;35423;37.320;-121.762;2023-07-13T11:33:49;99963.50;;;24.87;26.35
49529;BME280;35423;37.320;-121.762;2023-07-13T11:36:00;99960.22;;;24.77;26.46
49529;BME280;35423;37.320;-121.762;2023-07-13T11:38:20;99961.18;;;24.71;26.51
49529;BME280;35423;37.320;-121.762;2023-07-13T11:40:47;99961.18;;;24.68;26.55
49529;BME280;35423;37.320;-121.762;2023-07-13T11:43:15;99963.12;;;24.65;26.56
49529;BME280;35423;37.320;-121.762;2023-07-13T11:45:40;99965.75;;;24.63;26.61
49529;BME280;35423;37.320;-121.762;2023-07-13T11:50:30;99968.68;;;24.61;26.65
49529;BME280;35423;37.320;-121.762;2023-07-13T11:52:57;99974.32;;;24.54;26.72
49529;BME280;35423;37.320;-121.762;2023-07-13T11:55:23;99975.48;;;24.48;26.75
49529;BME280;35423;37.320;-121.762;2023-07-13T11:57:54;99973.08;;;24.42;26.79
49529;BME280;35423;37.320;-121.762;2023-07-13T12:00:23;99976.19;;;24.57;26.86
49529;BME280;35423;37.320;-121.762;2023-07-13T12:02:47;99975.05;;;24.30;26.89
49529;BME280;35423;37.320;-121.762;2023-07-13T12:05:13;99975.79;;;24.27;26.91
49529;BME280;35423;37.320;-121.762;2023-07-13T12:07:37;99979.80;;;24.43;26.97
49529;BME280;35423;37.320;-121.762;2023-07-13T12:10:16;99986.86;;;23.90;26.97
49529;BME280;35423;37.320;-121.762;2023-07-13T12:12:34;99983.92;;;24.08;27.01
49529;BME280;35423;37.320;-121.762;2023-07-13T12:14:58;99986.41;;;24.06;27.02
49529;BME280;35423;37.320;-121.762;2023-07-13T12:17:26;99986.90;;;24.07;27.01
49529;BME280;35423;37.320;-121.762;2023-07-13T12:19:53;99987.20;;;24.23;27.07
49529;BME280;35423;37.320;-121.762;2023-07-13T12:22:22;99988.96;;;24.43;27.11
49529;BME280;35423;37.320;-121.762;2023-07-13T12:24:49;99991.07;;;24.43;27.10
49529;BME280;35423;37.320;-121.762;2023-07-13T12:27:20;99993.85;;;23.93;27.19
49529;BME280;35423;37.320;-121.762;2023-07-13T12:29:52;99994.25;;;23.88;27.26
49529;BME280;35423;37.320;-121.762;2023-07-13T12:32:18;99995.25;;;23.81;27.28
49529;BME280;35423;37.320;-121.762;2023-07-13T12:37:13;99997.22;;;23.69;27.32
49529;BME280;35423;37.320;-121.762;2023-07-13T12:39:45;99996.80;;;24.08;27.34
49529;BME280;35423;37.320;-121.762;2023-07-13T12:42:16;100001.87;;;24.01;27.39
49529;BME280;35423;37.320;-121.762;2023-07-13T12:44:33;100001.78;;;23.71;27.49
49529;BME280;35423;37.320;-121.762;2023-07-13T12:47:04;100003.50;;;23.71;27.52